Time;durP1;ratioP1;P1;durP2;ratioP2;P2;SDS_P1;SDS_P2;PMS_P1;PMS_P2;Temp;Humidity;BMP_temperature;BMP_pressure;BME280_temperature;BME280_humidity;BME280_pressure;Samples;Min_cycle;Max_cycle;Signal;HPM_P1;HPM_P2
2021/03/11 00:00:28;;;;;;;4.43;3.00;;;;;;;;;;5014907;28;20442;-73
2021/03/11 00:02:54;;;;;;;5.03;2.90;;;;;;;;;;5015318;28;20041;-73
2021/03/11 00:05:20;;;;;;;9.30;3.03;;;;;;;;;;5014907;28;20397;-73
2021/03/11 00:07:45;;;;;;;3.67;2.30;;;;;;;;;;5015634;28;20407;-73
2021/03/11 00:10:11;;;;;;;3.65;2.40;;;;;;;;;;5015087;28;20072;-73
2021/03/11 00:12:41;;;;;;;4.38;2.88;;;;;;;;;;5015186;28;20099;-73
2021/03/11 00:15:07;;;;;;;3.10;2.08;;;;;;;;;;5015461;28;20504;-73
2021/03/11 00:17:33;;;;;;;3.88;2.00;;;;;;;;;;5031930;28;20041;-73
2021/03/11 00:19:58;;;;;;;4.10;2.40;;;;;;;;;;5000096;28;20420;-73
2021/03/11 00:22:24;;;;;;;3.65;2.40;;;;;;;;;;4995480;28;20029;-73
2021/03/11 00:24:49;;;;;;;3.22;2.08;;;;;;;;;;4995151;28;20038;-73
2021/03/11 00:27:14;;;;;;;4.30;2.30;;;;;;;;;;5011854;28;20113;-73
2021/03/11 00:29:40;;;;;;;4.03;2.47;;;;;;;;;;5011515;28;20041;-73
2021/03/11 00:32:06;;;;;;;3.35;1.85;;;;;;;;;;5011495;28;20119;-73
2021/03/11 00:34:31;;;;;;;3.10;2.08;;;;;;;;;;5011517;28;20435;-73
2021/03/11 00:36:56;;;;;;;3.25;2.10;;;;;;;;;;4995023;28;20128;-73
2021/03/11 00:39:22;;;;;;;2.88;1.65;;;;;;;;;;5011114;28;20760;-73
2021/03/11 00:41:47;;;;;;;3.10;1.75;;;;;;;;;;4994954;28;20050;-73
2021/03/11 00:44:13;;;;;;;3.50;2.35;;;;;;;;;;5011284;28;20052;-73
2021/03/11 00:46:38;;;;;;;2.90;1.90;;;;;;;;;;5011305;28;20416;-73
2021/03/11 00:49:04;;;;;;;3.08;1.92;;;;;;;;;;5010338;28;20033;-73
2021/03/11 00:51:29;;;;;;;3.88;1.83;;;;;;;;;;5007330;28;20100;-73
2021/03/11 00:53:55;;;;;;;2.85;1.70;;;;;;;;;;4991667;28;20412;-73
2021/03/11 00:56:20;;;;;;;2.92;2.20;;;;;;;;;;4991571;28;20046;-73
2021/03/11 00:58:45;;;;;;;3.17;1.75;;;;;;;;;;5007847;28;20444;-73
2021/03/11 01:01:11;;;;;;;3.67;1.73;;;;;;;;;;5010937;28;20467;-73
2021/03/11 01:03:36;;;;;;;2.85;1.70;;;;;;;;;;5010809;28;20382;-73
2021/03/11 01:06:02;;;;;;;2.88;1.83;;;;;;;;;;5012111;28;20451;-73
2021/03/11 01:08:27;;;;;;;2.63;1.60;;;;;;;;;;5010742;28;20121;-73
2021/03/11 01:10:53;;;;;;;4.00;1.95;;;;;;;;;;5010717;28;20042;-73
2021/03/11 01:13:19;;;;;;;4.53;2.17;;;;;;;;;;5012862;28;20042;-73
2021/03/11 01:15:45;;;;;;;2.47;1.65;;;;;;;;;;5014487;28;20041;-73
2021/03/11 01:18:11;;;;;;;3.17;2.20;;;;;;;;;;5013539;28;20033;-73
2021/03/11 01:20:36;;;;;;;2.00;1.40;;;;;;;;;;4999531;28;20562;-73
2021/03/11 01:23:02;;;;;;;2.10;1.30;;;;;;;;;;4994397;28;20090;-73
2021/03/11 01:25:27;;;;;;;2.65;1.45;;;;;;;;;;4978240;28;20432;-73
2021/03/11 01:27:53;;;;;;;2.30;1.33;;;;;;;;;;5010831;28;20510;-73
2021/03/11 01:30:19;;;;;;;2.67;1.27;;;;;;;;;;4978429;28;20435;-73
2021/03/11 01:32:44;;;;;;;2.85;1.92;;;;;;;;;;5006180;28;20400;-73
2021/03/11 01:35:10;;;;;;;1.90;1.15;;;;;;;;;;4990987;28;20390;-73
2021/03/11 01:37:35;;;;;;;2.22;1.08;;;;;;;;;;4991542;28;20381;-73
2021/03/11 01:40:01;;;;;;;1.90;1.13;;;;;;;;;;4974836;28;20121;-73
2021/03/11 01:42:27;;;;;;;2.17;1.27;;;;;;;;;;4975214;28;20408;-73
2021/03/11 01:44:52;;;;;;;2.95;1.20;;;;;;;;;;4987966;28;20050;-73
2021/03/11 01:47:18;;;;;;;2.03;1.13;;;;;;;;;;5010219;28;20038;-73
2021/03/11 01:49:43;;;;;;;1.83;1.10;;;;;;;;;;5009789;28;20412;-73
2021/03/11 01:52:08;;;;;;;3.03;1.30;;;;;;;;;;5009772;28;20455;-73
2021/03/11 01:54:34;;;;;;;2.10;1.17;;;;;;;;;;5010453;28;20459;-73
2021/03/11 01:57:00;;;;;;;1.65;1.00;;;;;;;;;;5013127;28;20475;-73
2021/03/11 01:59:25;;;;;;;2.58;1.13;;;;;;;;;;5014393;28;20069;-73
2021/03/11 02:01:51;;;;;;;2.70;1.42;;;;;;;;;;5000380;28;20062;-73
2021/03/11 02:04:17;;;;;;;2.42;1.00;;;;;;;;;;4978358;28;20089;-73
2021/03/11 02:06:42;;;;;;;2.38;1.13;;;;;;;;;;4994653;28;20064;-73
2021/03/11 02:09:08;;;;;;;1.27;0.90;;;;;;;;;;4994557;28;20054;-73
2021/03/11 02:11:33;;;;;;;2.08;1.35;;;;;;;;;;4978080;28;20464;-73
2021/03/11 02:14:22;;;;;;;2.65;1.20;;;;;;;;;;4997488;28;20034;-73
2021/03/11 02:16:54;;;;;;;1.50;0.80;;;;;;;;;;5023978;28;20034;-73
2021/03/11 02:19:37;;;;;;;2.25;0.80;;;;;;;;;;4994115;28;20105;-73
2021/03/11 02:22:26;;;;;;;1.55;0.80;;;;;;;;;;4994091;28;20038;-73
2021/03/11 02:25:12;;;;;;;2.30;0.73;;;;;;;;;;4994430;28;20108;-73
2021/03/11 02:27:50;;;;;;;1.90;1.00;;;;;;;;;;4995586;28;20037;-73
2021/03/11 02:30:15;;;;;;;2.03;0.70;;;;;;;;;;5010432;28;20092;-73
2021/03/11 02:32:41;;;;;;;1.85;0.90;;;;;;;;;;4994129;28;20404;-73
2021/03/11 02:35:08;;;;;;;1.55;0.90;;;;;;;;;;5010311;28;20151;-73
2021/03/11 02:37:38;;;;;;;1.98;0.98;;;;;;;;;;5010272;28;20046;-73
2021/03/11 02:40:26;;;;;;;1.40;0.63;;;;;;;;;;4994576;28;20047;-73
2021/03/11 02:42:52;;;;;;;1.40;0.82;;;;;;;;;;4995728;28;20449;-73
2021/03/11 02:45:23;;;;;;;1.17;0.65;;;;;;;;;;4993756;28;20097;-73
2021/03/11 02:47:48;;;;;;;2.20;0.85;;;;;;;;;;4994732;28;20038;-73
2021/03/11 02:50:14;;;;;;;2.00;0.90;;;;;;;;;;4993477;28;20496;-73
2021/03/11 02:52:40;;;;;;;1.33;0.80;;;;;;;;;;4993395;28;20189;-73
2021/03/11 02:55:05;;;;;;;1.13;0.77;;;;;;;;;;4993716;28;20038;-73
2021/03/11 02:57:31;;;;;;;1.95;0.73;;;;;;;;;;4993838;28;20034;-73
2021/03/11 02:59:57;;;;;;;1.13;0.63;;;;;;;;;;4977615;28;20128;-73
2021/03/11 03:02:22;;;;;;;1.17;0.50;;;;;;;;;;4993783;28;20165;-73
2021/03/11 03:04:50;;;;;;;1.17;0.63;;;;;;;;;;4977384;28;20042;-73
2021/03/11 03:07:16;;;;;;;1.35;0.80;;;;;;;;;;4992794;28;20034;-73
2021/03/11 03:09:46;;;;;;;1.25;0.80;;;;;;;;;;4993298;28;20093;-74
2021/03/11 03:12:11;;;;;;;1.42;0.70;;;;;;;;;;4976919;28;20412;-74
2021/03/11 03:14:37;;;;;;;1.58;1.13;;;;;;;;;;5009331;28;20029;-74
2021/03/11 03:17:02;;;;;;;2.20;0.80;;;;;;;;;;5016178;28;20047;-74
2021/03/11 03:19:28;;;;;;;2.25;0.90;;;;;;;;;;5016167;28;20046;-74
2021/03/11 03:21:53;;;;;;;1.13;0.80;;;;;;;;;;5016317;28;20113;-74
2021/03/11 03:24:19;;;;;;;1.15;0.80;;;;;;;;;;5015989;28;20388;-74
2021/03/11 03:26:44;;;;;;;2.45;0.93;;;;;;;;;;5016209;28;20403;-74
2021/03/11 03:29:10;;;;;;;1.88;0.85;;;;;;;;;;5000112;28;20114;-74
2021/03/11 03:31:36;;;;;;;0.90;0.50;;;;;;;;;;5032365;28;20065;-74
2021/03/11 03:34:01;;;;;;;1.88;0.80;;;;;;;;;;5000173;28;20104;-74
2021/03/11 03:36:27;;;;;;;1.00;0.57;;;;;;;;;;5012482;28;20046;-74
2021/03/11 03:38:56;;;;;;;1.83;0.90;;;;;;;;;;5012460;28;20046;-74
2021/03/11 03:41:22;;;;;;;1.40;0.95;;;;;;;;;;5012112;28;20084;-74
2021/03/11 03:43:48;;;;;;;2.17;0.77;;;;;;;;;;4996348;28;20719;-74
2021/03/11 03:46:14;;;;;;;1.88;0.80;;;;;;;;;;4996313;28;20212;-74
2021/03/11 03:48:52;;;;;;;1.63;1.00;;;;;;;;;;5012599;28;20030;-74
2021/03/11 03:51:22;;;;;;;1.13;0.50;;;;;;;;;;5010793;28;20041;-74
2021/03/11 03:53:50;;;;;;;1.55;0.80;;;;;;;;;;5012514;28;20083;-74
2021/03/11 03:56:28;;;;;;;1.70;0.90;;;;;;;;;;4995731;28;20045;-74
2021/03/11 03:58:57;;;;;;;1.30;0.60;;;;;;;;;;5012215;28;20037;-74
2021/03/11 04:01:29;;;;;;;1.55;0.75;;;;;;;;;;4995800;28;20515;-74
2021/03/11 04:03:54;;;;;;;;;;;;;;;;;;4997671;28;20041;-74
2021/03/11 04:06:20;;;;;;;0.90;0.60;;;;;;;;;;4995676;28;20427;-74
2021/03/11 04:08:45;;;;;;;1.40;0.73;;;;;;;;;;4995536;28;20045;-74
2021/03/11 04:11:11;;;;;;;1.10;0.70;;;;;;;;;;4995176;28;20420;-74
2021/03/11 04:13:36;;;;;;;1.55;0.98;;;;;;;;;;4995872;28;20033;-74
2021/03/11 04:16:02;;;;;;;0.82;0.60;;;;;;;;;;5011793;28;20096;-74
2021/03/11 04:18:27;;;;;;;1.15;0.70;;;;;;;;;;5011803;28;20479;-74
2021/03/11 04:20:53;;;;;;;1.30;0.80;;;;;;;;;;5011528;28;20041;-74
2021/03/11 04:23:19;;;;;;;1.40;0.70;;;;;;;;;;4995530;28;20230;-74
2021/03/11 04:25:44;;;;;;;1.15;0.60;;;;;;;;;;4995160;28;20489;-73
2021/03/11 04:28:10;;;;;;;1.55;0.93;;;;;;;;;;5011540;28;20049;-74
2021/03/11 04:30:36;;;;;;;0.80;0.50;;;;;;;;;;5010990;28;20427;-74
2021/03/11 04:33:01;;;;;;;1.45;0.60;;;;;;;;;;5011622;28;20069;-74
2021/03/11 04:35:27;;;;;;;1.40;0.75;;;;;;;;;;5011838;28;20045;-74
2021/03/11 04:37:52;;;;;;;1.60;0.80;;;;;;;;;;5011476;28;20034;-73
2021/03/11 04:40:18;;;;;;;1.77;0.70;;;;;;;;;;5010951;28;20041;-74
2021/03/11 04:42:43;;;;;;;0.80;0.60;;;;;;;;;;5011355;28;20448;-73
2021/03/11 04:45:09;;;;;;;1.58;0.50;;;;;;;;;;5011166;28;20465;-73
2021/03/11 04:47:35;;;;;;;1.17;0.57;;;;;;;;;;5011535;28;20041;-74
2021/03/11 04:50:01;;;;;;;1.95;1.40;;;;;;;;;;5011184;28;20038;-73
2021/03/11 04:52:26;;;;;;;1.50;0.65;;;;;;;;;;4984735;28;20096;-73
2021/03/11 04:54:52;;;;;;;1.45;0.93;;;;;;;;;;4975491;28;20404;-74
2021/03/11 04:57:18;;;;;;;0.93;0.63;;;;;;;;;;4991603;28;20073;-73
2021/03/11 04:59:43;;;;;;;0.85;0.60;;;;;;;;;;4991392;28;20046;-73
2021/03/11 05:02:09;;;;;;;0.90;0.63;;;;;;;;;;4990928;28;20078;-74
2021/03/11 05:04:35;;;;;;;1.10;0.50;;;;;;;;;;4991679;28;20417;-73
2021/03/11 05:07:00;;;;;;;0.93;0.55;;;;;;;;;;4991869;28;20041;-73
2021/03/11 05:09:25;;;;;;;0.73;0.52;;;;;;;;;;5007158;28;20423;-73
2021/03/11 05:11:51;;;;;;;0.98;0.50;;;;;;;;;;4991322;28;20038;-73
2021/03/11 05:14:16;;;;;;;0.85;0.50;;;;;;;;;;5010950;28;20411;-73
2021/03/11 05:16:42;;;;;;;1.00;0.45;;;;;;;;;;5013916;28;20399;-73
2021/03/11 05:19:07;;;;;;;1.98;1.00;;;;;;;;;;5030534;28;20103;-73
2021/03/11 05:21:33;;;;;;;0.63;0.40;;;;;;;;;;5030439;28;20446;-73
2021/03/11 05:23:58;;;;;;;1.15;0.60;;;;;;;;;;5013918;28;20044;-73
2021/03/11 05:26:24;;;;;;;1.27;0.60;;;;;;;;;;5030391;28;20033;-73
2021/03/11 05:28:49;;;;;;;1.13;0.57;;;;;;;;;;5013822;28;20045;-73
2021/03/11 05:31:15;;;;;;;1.45;0.60;;;;;;;;;;5013148;28;20040;-73
2021/03/11 05:33:40;;;;;;;1.27;0.52;;;;;;;;;;5019673;28;20389;-73
2021/03/11 05:36:06;;;;;;;0.68;0.40;;;;;;;;;;4994361;28;20038;-73
2021/03/11 05:38:31;;;;;;;0.90;0.50;;;;;;;;;;5009820;28;20041;-73
2021/03/11 05:40:57;;;;;;;1.00;0.57;;;;;;;;;;5010333;28;20179;-73
2021/03/11 05:43:22;;;;;;;1.20;0.52;;;;;;;;;;4994225;28;20042;-73
2021/03/11 05:45:47;;;;;;;1.48;0.70;;;;;;;;;;4994175;28;20439;-73
2021/03/11 05:48:14;;;;;;;2.25;0.75;;;;;;;;;;4977752;28;20455;-73
2021/03/11 05:50:40;;;;;;;0.95;0.60;;;;;;;;;;5010106;28;20034;-73
2021/03/11 05:53:06;;;;;;;1.00;0.52;;;;;;;;;;5010055;28;20042;-73
2021/03/11 05:55:31;;;;;;;0.70;0.43;;;;;;;;;;4978193;28;20532;-73
2021/03/11 05:57:57;;;;;;;0.85;0.50;;;;;;;;;;5011814;28;20049;-73
2021/03/11 06:00:22;;;;;;;1.40;1.00;;;;;;;;;;4994207;28;20065;-73
2021/03/11 06:02:59;;;;;;;1.25;0.63;;;;;;;;;;4994039;28;20048;-73
2021/03/11 06:05:24;;;;;;;1.10;0.50;;;;;;;;;;4994328;28;20041;-73
2021/03/11 06:07:49;;;;;;;2.45;0.60;;;;;;;;;;4977083;28;20030;-73
2021/03/11 06:10:19;;;;;;;1.80;0.50;;;;;;;;;;4991281;28;20037;-73
2021/03/11 06:12:45;;;;;;;2.60;0.60;;;;;;;;;;4976022;28;20504;-73
2021/03/11 06:15:14;;;;;;;1.73;0.70;;;;;;;;;;4973948;28;20058;-72
2021/03/11 06:17:40;;;;;;;16.08;1.45;;;;;;;;;;5010301;28;20053;-72
2021/03/11 06:20:07;;;;;;;3.55;0.90;;;;;;;;;;5010189;28;20034;-73
2021/03/11 06:22:33;;;;;;;4.88;0.98;;;;;;;;;;4993577;28;20064;-72
2021/03/11 06:24:58;;;;;;;143.23;128.60;;;;;;;;;;5010113;28;20523;-73
2021/03/11 06:27:24;;;;;;;124.75;111.88;;;;;;;;;;5010035;28;20046;-72
2021/03/11 06:29:50;;;;;;;78.18;69.68;;;;;;;;;;4993755;28;20057;-72
2021/03/11 06:32:15;;;;;;;73.97;66.10;;;;;;;;;;5009466;28;20038;-73
2021/03/11 06:34:44;;;;;;;68.88;61.70;;;;;;;;;;5010001;28;20108;-73
2021/03/11 06:37:10;;;;;;;66.65;59.55;;;;;;;;;;5008968;28;20034;-73
2021/03/11 06:39:40;;;;;;;64.40;57.63;;;;;;;;;;5006642;28;20113;-73
2021/03/11 06:42:06;;;;;;;59.28;52.88;;;;;;;;;;5010452;28;20256;-72
2021/03/11 06:44:39;;;;;;;54.50;48.67;;;;;;;;;;5014927;28;20033;-73
2021/03/11 06:47:15;;;;;;;54.35;48.78;;;;;;;;;;5014070;28;20030;-73
2021/03/11 06:49:56;;;;;;;51.97;46.47;;;;;;;;;;4977540;28;20033;-73
2021/03/11 06:52:21;;;;;;;51.42;44.17;;;;;;;;;;5008785;28;20034;-72
2021/03/11 06:54:56;;;;;;;47.15;42.15;;;;;;;;;;4996904;28;20420;-73
2021/03/11 06:57:31;;;;;;;47.72;40.63;;;;;;;;;;4997922;28;20500;-72
2021/03/11 07:00:01;;;;;;;45.28;40.38;;;;;;;;;;4997368;28;20444;-73
2021/03/11 07:02:27;;;;;;;43.00;38.33;;;;;;;;;;5013542;28;20044;-73
2021/03/11 07:04:54;;;;;;;41.42;36.85;;;;;;;;;;5013046;28;20555;-73
2021/03/11 07:07:21;;;;;;;42.67;37.95;;;;;;;;;;4997090;28;20076;-73
2021/03/11 07:09:47;;;;;;;40.65;36.40;;;;;;;;;;4996338;28;20141;-73
2021/03/11 07:12:13;;;;;;;403.67;335.60;;;;;;;;;;5012906;28;20038;-73
2021/03/11 07:14:38;;;;;;;240.48;203.77;;;;;;;;;;5025105;28;20392;-74
2021/03/11 07:17:24;;;;;;;165.02;141.15;;;;;;;;;;5032648;28;20052;-73
2021/03/11 07:20:05;;;;;;;148.15;122.05;;;;;;;;;;5015901;28;20038;-74
2021/03/11 07:22:31;;;;;;;138.00;116.60;;;;;;;;;;5030446;28;20063;-74
2021/03/11 07:24:56;;;;;;;127.07;106.63;;;;;;;;;;5013805;28;20507;-74
2021/03/11 07:27:21;;;;;;;117.15;99.13;;;;;;;;;;5014158;28;20038;-74
2021/03/11 07:30:06;;;;;;;115.63;95.85;;;;;;;;;;5027237;28;20048;-74
2021/03/11 07:32:32;;;;;;;107.63;91.75;;;;;;;;;;4993843;28;20567;-74
2021/03/11 07:34:58;;;;;;;105.20;87.63;;;;;;;;;;4993848;28;20041;-74
2021/03/11 07:37:24;;;;;;;100.75;84.75;;;;;;;;;;5010562;28;20101;-74
2021/03/11 07:39:49;;;;;;;97.72;80.68;;;;;;;;;;4995112;28;20065;-75
2021/03/11 07:42:15;;;;;;;98.03;82.20;;;;;;;;;;4996214;28;20558;-75
2021/03/11 07:44:40;;;;;;;89.35;76.95;;;;;;;;;;4996446;28;20448;-75
2021/03/11 07:47:06;;;;;;;89.05;73.10;;;;;;;;;;4996214;28;20052;-75
2021/03/11 07:49:35;;;;;;;93.63;73.43;;;;;;;;;;5011723;28;20061;-75
2021/03/11 07:52:01;;;;;;;82.55;70.63;;;;;;;;;;4979192;28;20035;-75
2021/03/11 07:54:27;;;;;;;85.10;68.53;;;;;;;;;;4992020;28;20061;-75
2021/03/11 07:56:52;;;;;;;75.68;67.15;;;;;;;;;;4992802;28;20043;-75
2021/03/11 07:59:18;;;;;;;77.90;62.92;;;;;;;;;;4992637;28;20495;-75
2021/03/11 08:01:47;;;;;;;74.88;60.28;;;;;;;;;;4995513;28;20038;-75
2021/03/11 08:04:12;;;;;;;72.63;60.72;;;;;;;;;;5007952;28;20035;-76
2021/03/11 08:06:38;;;;;;;67.50;58.13;;;;;;;;;;4992466;28;20134;-76
2021/03/11 08:09:03;;;;;;;66.00;57.53;;;;;;;;;;5008008;28;20397;-76
2021/03/11 08:11:35;;;;;;;64.60;55.35;;;;;;;;;;4995315;28;20057;-77
2021/03/11 08:14:20;;;;;;;65.57;53.27;;;;;;;;;;5020500;28;20033;-76
2021/03/11 08:16:45;;;;;;;57.20;49.90;;;;;;;;;;5031795;28;20021;-76
2021/03/11 08:19:37;;;;;;;60.88;49.28;;;;;;;;;;5014918;28;20047;-76
2021/03/11 08:22:03;;;;;;;58.03;48.13;;;;;;;;;;5018042;28;20038;-76
2021/03/11 08:24:58;;;;;;;55.13;45.92;;;;;;;;;;4978958;28;20057;-76
2021/03/11 08:27:32;;;;;;;55.80;45.67;;;;;;;;;;5007030;28;20038;-75
2021/03/11 08:29:58;;;;;;;51.47;43.17;;;;;;;;;;5010990;28;20121;-76
2021/03/11 08:32:49;;;;;;;46.30;40.75;;;;;;;;;;4975230;28;20038;-77
2021/03/11 08:35:26;;;;;;;52.47;40.40;;;;;;;;;;5001555;28;20049;-76
2021/03/11 08:37:56;;;;;;;51.25;39.33;;;;;;;;;;4992782;28;20636;-76
2021/03/11 08:40:42;;;;;;;46.38;38.97;;;;;;;;;;4975931;28;20050;-76
2021/03/11 08:43:07;;;;;;;40.85;36.38;;;;;;;;;;4976715;28;20042;-76
2021/03/11 08:48:20;;;;;;;41.47;33.28;;;;;;;;;;4993385;28;20030;-76
2021/03/11 08:50:50;;;;;;;39.53;33.58;;;;;;;;;;4994279;28;20041;-76
2021/03/11 08:53:36;;;;;;;39.78;32.90;;;;;;;;;;5011176;28;20031;-76
2021/03/11 08:56:22;;;;;;;37.13;31.58;;;;;;;;;;5011587;28;20050;-76
2021/03/11 08:59:00;;;;;;;35.00;29.08;;;;;;;;;;5011992;28;20507;-75
2021/03/11 09:01:31;;;;;;;33.85;28.00;;;;;;;;;;5003628;28;20033;-75
2021/03/11 09:03:57;;;;;;;32.70;27.63;;;;;;;;;;5012454;28;20056;-74
2021/03/11 09:06:51;;;;;;;32.20;26.95;;;;;;;;;;5010985;28;20041;-74
2021/03/11 09:09:17;;;;;;;30.77;25.08;;;;;;;;;;5010714;28;20048;-75
2021/03/11 09:11:53;;;;;;;27.20;23.95;;;;;;;;;;4994452;28;20508;-75
2021/03/11 09:14:21;;;;;;;27.35;22.55;;;;;;;;;;5021348;28;20038;-75
2021/03/11 09:16:46;;;;;;;25.25;22.10;;;;;;;;;;5014052;28;20037;-75
2021/03/11 09:19:13;;;;;;;26.25;22.75;;;;;;;;;;5030364;28;20086;-74
2021/03/11 09:21:41;;;;;;;28.98;22.70;;;;;;;;;;5014755;28;20029;-75
2021/03/11 09:24:16;;;;;;;23.75;19.45;;;;;;;;;;4997568;28;20067;-75
2021/03/11 09:26:41;;;;;;;26.83;21.52;;;;;;;;;;5014791;28;20041;-74
2021/03/11 09:29:07;;;;;;;24.65;19.52;;;;;;;;;;5013895;28;20043;-74
2021/03/11 09:31:32;;;;;;;27.38;19.75;;;;;;;;;;4997269;28;20420;-74
2021/03/11 09:34:02;;;;;;;22.08;18.17;;;;;;;;;;5005584;28;20048;-74
2021/03/11 09:36:28;;;;;;;21.65;16.27;;;;;;;;;;5010545;28;20064;-74
2021/03/11 09:39:57;;;;;;;21.20;17.02;;;;;;;;;;5100566;27;20394;-74
2021/03/11 09:42:22;;;;;;;19.20;15.60;;;;;;;;;;5071139;28;20044;-74
2021/03/11 09:44:48;;;;;;;18.02;14.90;;;;;;;;;;5070284;28;20040;-74
2021/03/11 09:47:14;;;;;;;18.10;14.57;;;;;;;;;;5071072;28;20105;-74
2021/03/11 09:49:39;;;;;;;16.73;12.68;;;;;;;;;;5053882;28;20032;-74
2021/03/11 09:52:05;;;;;;;19.13;14.18;;;;;;;;;;5091677;28;20045;-74
2021/03/11 09:54:30;;;;;;;19.98;14.75;;;;;;;;;;5094036;28;20443;-74
2021/03/11 09:56:55;;;;;;;18.08;13.27;;;;;;;;;;5069628;28;20502;-73
2021/03/11 09:59:21;;;;;;;16.90;12.43;;;;;;;;;;5082140;28;20421;-73
2021/03/11 10:01:48;;;;;;;16.00;12.77;;;;;;;;;;5061736;28;20413;-74
2021/03/11 10:04:15;;;;;;;15.35;12.13;;;;;;;;;;5090860;28;20032;-74
2021/03/11 10:06:58;;;;;;;15.13;10.30;;;;;;;;;;5094773;28;20452;-74
2021/03/11 10:09:24;;;;;;;13.38;10.48;;;;;;;;;;5104147;28;20093;-74
2021/03/11 10:11:53;;;;;;;15.23;10.30;;;;;;;;;;5085828;28;20514;-73
2021/03/11 10:14:23;;;;;;;12.90;9.27;;;;;;;;;;5092466;28;20107;-74
2021/03/11 10:16:50;;;;;;;11.57;9.02;;;;;;;;;;5081820;28;20044;-74
2021/03/11 10:19:20;;;;;;;12.57;9.07;;;;;;;;;;5086741;28;20529;-73
2021/03/11 10:21:50;;;;;;;12.23;9.32;;;;;;;;;;5102317;28;20102;-73
2021/03/11 10:24:35;;;;;;;9.75;8.25;;;;;;;;;;5107135;28;20035;-73
2021/03/11 10:27:00;;;;;;;11.30;7.55;;;;;;;;;;5106593;28;20036;-73
2021/03/11 10:29:27;;;;;;;10.98;7.57;;;;;;;;;;5106446;28;20505;-73
2021/03/11 10:32:00;;;;;;;11.40;6.70;;;;;;;;;;5090687;28;20040;-73
2021/03/11 10:34:25;;;;;;;9.38;6.60;;;;;;;;;;5070994;28;20103;-73
2021/03/11 10:36:59;;;;;;;12.15;7.18;;;;;;;;;;5086762;28;20032;-73
2021/03/11 10:39:24;;;;;;;8.98;5.90;;;;;;;;;;5095249;28;20388;-73
2021/03/11 10:42:04;;;;;;;10.77;6.95;;;;;;;;;;5087040;28;20043;-73
2021/03/11 10:44:30;;;;;;;8.73;6.00;;;;;;;;;;5074177;28;20435;-73
2021/03/11 10:47:18;;;;;;;8.18;5.43;;;;;;;;;;5090213;28;20111;-72
2021/03/11 10:49:44;;;;;;;8.65;5.65;;;;;;;;;;5091084;28;20505;-73
2021/03/11 10:52:10;;;;;;;8.32;5.18;;;;;;;;;;5051753;28;20051;-72
2021/03/11 10:54:36;;;;;;;8.02;5.43;;;;;;;;;;5076802;28;20033;-72
2021/03/11 10:57:04;;;;;;;11.25;6.93;;;;;;;;;;5079522;28;20535;-73
2021/03/11 10:59:55;;;;;;;7.90;5.38;;;;;;;;;;5080050;28;20040;-72
2021/03/11 11:02:23;;;;;;;7.00;4.65;;;;;;;;;;5072839;28;20036;-72
2021/03/11 11:04:49;;;;;;;9.95;4.25;;;;;;;;;;5059473;28;20123;-72
2021/03/11 11:07:14;;;;;;;9.25;4.50;;;;;;;;;;5071299;28;20116;-72
2021/03/11 11:09:39;;;;;;;8.80;4.35;;;;;;;;;;5083200;28;20075;-72
2021/03/11 11:12:08;;;;;;;8.30;4.30;;;;;;;;;;5079061;28;20028;-72
2021/03/11 11:14:35;;;;;;;9.50;4.68;;;;;;;;;;5091254;28;20063;-73
2021/03/11 11:17:00;;;;;;;7.22;3.70;;;;;;;;;;5056113;28;20036;-73
2021/03/11 11:19:26;;;;;;;6.65;3.42;;;;;;;;;;5073480;28;20090;-72
2021/03/11 11:21:51;;;;;;;6.90;3.63;;;;;;;;;;5056277;28;20033;-73
2021/03/11 11:24:17;;;;;;;9.77;3.70;;;;;;;;;;5072413;28;20449;-72
2021/03/11 11:26:43;;;;;;;9.60;4.10;;;;;;;;;;5071835;28;20448;-73
2021/03/11 11:29:08;;;;;;;6.63;3.15;;;;;;;;;;5072489;28;20040;-72
2021/03/11 11:31:34;;;;;;;7.03;3.00;;;;;;;;;;5073687;28;20047;-72
2021/03/11 11:33:59;;;;;;;6.15;3.03;;;;;;;;;;5060000;28;20600;-72
2021/03/11 11:36:25;;;;;;;8.75;3.90;;;;;;;;;;5058376;28;20040;-72
2021/03/11 11:38:51;;;;;;;8.18;3.10;;;;;;;;;;5085599;28;20402;-73
2021/03/11 11:41:16;;;;;;;8.13;2.75;;;;;;;;;;5071197;28;20398;-73
2021/03/11 11:43:42;;;;;;;7.88;3.15;;;;;;;;;;5088524;28;20059;-73
2021/03/11 11:46:08;;;;;;;11.02;2.88;;;;;;;;;;5091422;28;20066;-73
2021/03/11 11:48:33;;;;;;;9.20;4.75;;;;;;;;;;5069999;28;20422;-73
2021/03/11 11:50:59;;;;;;;6.88;3.90;;;;;;;;;;5091355;28;20623;-73
2021/03/11 11:53:24;;;;;;;9.20;4.05;;;;;;;;;;5059271;28;20032;-73
2021/03/11 11:55:50;;;;;;;8.38;3.40;;;;;;;;;;5074048;28;20024;-73
2021/03/11 11:58:15;;;;;;;8.75;3.95;;;;;;;;;;5091525;28;20448;-72
2021/03/11 12:00:41;;;;;;;7.65;3.05;;;;;;;;;;5074237;28;20111;-73
2021/03/11 12:03:06;;;;;;;8.02;3.22;;;;;;;;;;5074259;28;20391;-73
2021/03/11 12:05:32;;;;;;;6.28;2.80;;;;;;;;;;5091387;28;20444;-73
2021/03/11 12:07:57;;;;;;;8.43;3.67;;;;;;;;;;5074367;28;20422;-73
2021/03/11 12:10:22;;;;;;;6.45;2.92;;;;;;;;;;5072840;28;20073;-73
2021/03/11 12:12:48;;;;;;;6.93;2.97;;;;;;;;;;5090458;28;20032;-73
2021/03/11 12:15:13;;;;;;;6.45;2.78;;;;;;;;;;5090725;28;20088;-73
2021/03/11 12:17:39;;;;;;;10.38;3.38;;;;;;;;;;5089812;28;20429;-73
2021/03/11 12:20:05;;;;;;;8.13;2.78;;;;;;;;;;5072606;28;20025;-73
2021/03/11 12:22:30;;;;;;;6.45;2.67;;;;;;;;;;5089885;28;20514;-73
2021/03/11 12:24:56;;;;;;;6.30;2.30;;;;;;;;;;5089922;28;20047;-73
2021/03/11 12:27:24;;;;;;;6.85;2.83;;;;;;;;;;5072625;28;20367;-73
2021/03/11 12:29:51;;;;;;;8.18;2.45;;;;;;;;;;5057425;28;20028;-72
2021/03/11 12:32:16;;;;;;;7.88;2.38;;;;;;;;;;5056810;28;20048;-72
2021/03/11 12:34:42;;;;;;;6.40;2.35;;;;;;;;;;5073331;28;20527;-73
2021/03/11 12:37:07;;;;;;;7.20;2.22;;;;;;;;;;5090127;28;20048;-73
2021/03/11 12:39:33;;;;;;;8.98;2.10;;;;;;;;;;5039296;28;20063;-72
2021/03/11 12:41:58;;;;;;;4.80;2.22;;;;;;;;;;5072968;28;20047;-73
2021/03/11 12:44:24;;;;;;;6.00;1.70;;;;;;;;;;5089737;28;20417;-73
2021/03/11 12:46:49;;;;;;;5.50;2.13;;;;;;;;;;5089978;28;20448;-73
2021/03/11 12:49:15;;;;;;;6.85;1.75;;;;;;;;;;5090900;28;20111;-73
2021/03/11 12:51:40;;;;;;;6.93;2.05;;;;;;;;;;5073293;28;20112;-72
2021/03/11 12:54:05;;;;;;;7.75;2.97;;;;;;;;;;5072566;28;20032;-72
2021/03/11 12:56:31;;;;;;;8.30;1.95;;;;;;;;;;5073078;28;20040;-72
2021/03/11 12:58:56;;;;;;;6.65;1.33;;;;;;;;;;5072747;28;20028;-73
2021/03/11 13:01:22;;;;;;;5.75;1.92;;;;;;;;;;5089153;28;20063;-72
2021/03/11 13:03:48;;;;;;;3.85;1.52;;;;;;;;;;5073455;28;20432;-73
2021/03/11 13:06:13;;;;;;;5.47;1.63;;;;;;;;;;5072900;28;20032;-73
2021/03/11 13:08:39;;;;;;;6.28;1.90;;;;;;;;;;5089737;28;20054;-73
2021/03/11 13:11:04;;;;;;;6.45;1.52;;;;;;;;;;5072028;28;20115;-73
2021/03/11 13:13:30;;;;;;;4.68;1.33;;;;;;;;;;5087892;28;20089;-73
2021/03/11 13:15:55;;;;;;;4.90;2.10;;;;;;;;;;5086064;28;20075;-76
2021/03/11 13:18:21;;;;;;;4.00;1.52;;;;;;;;;;5086581;28;20032;-77
2021/03/11 13:20:46;;;;;;;6.43;1.73;;;;;;;;;;5072169;28;20047;-76
2021/03/11 13:23:13;;;;;;;5.03;1.23;;;;;;;;;;5088502;28;20035;-76
2021/03/11 13:25:41;;;;;;;4.28;1.55;;;;;;;;;;5055656;28;20054;-76
2021/03/11 13:28:07;;;;;;;6.25;1.88;;;;;;;;;;5071581;28;20036;-77
2021/03/11 13:30:32;;;;;;;9.35;2.00;;;;;;;;;;5055415;28;20505;-76
2021/03/11 13:32:58;;;;;;;8.38;2.30;;;;;;;;;;5038927;28;20032;-76
2021/03/11 13:35:24;;;;;;;16.63;2.50;;;;;;;;;;5069706;28;20464;-76
2021/03/11 13:37:49;;;;;;;19.55;4.57;;;;;;;;;;5055547;28;20066;-76
2021/03/11 13:40:15;;;;;;;14.57;3.70;;;;;;;;;;5088499;28;20040;-76
2021/03/11 13:42:40;;;;;;;11.98;2.83;;;;;;;;;;5072460;28;20054;-76
2021/03/11 13:45:07;;;;;;;17.45;4.82;;;;;;;;;;5072226;28;20084;-76
2021/03/11 13:47:32;;;;;;;18.85;4.22;;;;;;;;;;5054106;28;20036;-76
2021/03/11 13:49:58;;;;;;;14.30;3.38;;;;;;;;;;5053514;28;20043;-76
2021/03/11 13:52:24;;;;;;;15.50;3.50;;;;;;;;;;5055791;28;20039;-76
2021/03/11 13:54:49;;;;;;;21.73;7.13;;;;;;;;;;5072294;28;20406;-76
2021/03/11 13:57:15;;;;;;;28.05;4.95;;;;;;;;;;5089413;28;20028;-76
2021/03/11 13:59:40;;;;;;;18.83;3.97;;;;;;;;;;5055116;28;20059;-76
2021/03/11 14:02:05;;;;;;;19.70;3.00;;;;;;;;;;5054945;28;20066;-76
2021/03/11 14:04:31;;;;;;;20.13;3.75;;;;;;;;;;5088203;28;20524;-76
2021/03/11 14:06:56;;;;;;;24.45;4.32;;;;;;;;;;5088888;28;20109;-76
2021/03/11 14:09:22;;;;;;;17.30;3.97;;;;;;;;;;5054819;28;20051;-76
2021/03/11 14:11:47;;;;;;;15.05;3.65;;;;;;;;;;5055477;28;20032;-76
2021/03/11 14:14:16;;;;;;;16.77;4.70;;;;;;;;;;5071927;28;20040;-76
2021/03/11 14:16:42;;;;;;;14.10;3.50;;;;;;;;;;5088613;28;20044;-76
2021/03/11 14:19:09;;;;;;;12.27;3.13;;;;;;;;;;5037462;28;20408;-76
2021/03/11 14:21:34;;;;;;;14.57;3.45;;;;;;;;;;5071876;28;20115;-76
2021/03/11 14:23:59;;;;;;;17.33;3.33;;;;;;;;;;5052961;28;20048;-76
2021/03/11 14:26:25;;;;;;;9.63;3.00;;;;;;;;;;5057762;28;20410;-76
2021/03/11 14:28:50;;;;;;;14.38;4.03;;;;;;;;;;5058602;28;20085;-76
2021/03/11 14:31:16;;;;;;;13.02;3.78;;;;;;;;;;5075570;28;20917;-77
2021/03/11 14:33:41;;;;;;;9.68;2.88;;;;;;;;;;5092296;28;20126;-77
2021/03/11 14:36:07;;;;;;;14.23;2.42;;;;;;;;;;5074243;28;20048;-76
2021/03/11 14:38:32;;;;;;;9.20;2.35;;;;;;;;;;5058171;28;20410;-76